createdAt,value
2018-05-26T00:00:33.934Z,68.10
2018-05-26T00:03:01.387Z,68.30
2018-05-26T00:05:29.474Z,68.60
2018-05-26T00:07:57.727Z,68.40
2018-05-26T00:10:25.197Z,68.40
2018-05-26T00:12:52.692Z,68.20
2018-05-26T00:15:20.138Z,68.40
2018-05-26T00:17:47.585Z,68.70
2018-05-26T00:20:15.817Z,68.70
2018-05-26T00:22:50.521Z,69.10
2018-05-26T00:25:17.996Z,69.10
2018-05-26T00:27:45.462Z,69.50
2018-05-26T00:30:12.905Z,69.70
2018-05-26T00:32:40.355Z,69.60
2018-05-26T00:35:07.841Z,69.40
2018-05-26T00:37:35.291Z,69.40
2018-05-26T00:40:02.794Z,69.30
2018-05-26T00:42:30.267Z,69.30
2018-05-26T00:44:57.820Z,69.50
2018-05-26T00:47:26.108Z,69.80
2018-05-26T00:49:53.603Z,69.70
2018-05-26T00:52:21.057Z,69.90
2018-05-26T00:54:48.549Z,70.40
2018-05-26T00:57:16.006Z,70.00
2018-05-26T00:59:43.473Z,70.00
2018-05-26T01:02:10.974Z,69.90
2018-05-26T01:04:38.466Z,69.70
2018-05-26T01:07:05.991Z,69.80
2018-05-26T01:09:33.497Z,69.80
2018-05-26T01:12:00.978Z,69.90
2018-05-26T01:14:28.421Z,69.80
2018-05-26T01:16:55.923Z,69.90
2018-05-26T01:19:23.826Z,69.90
2018-05-26T01:21:52.058Z,70.10
2018-05-26T01:24:19.633Z,70.10
2018-05-26T01:26:47.114Z,70.10
2018-05-26T01:29:14.557Z,70.20
2018-05-26T01:31:42.806Z,70.40
2018-05-26T01:34:10.267Z,70.30
2018-05-26T01:36:37.750Z,70.40
2018-05-26T01:39:05.216Z,71.00
2018-05-26T01:41:33.452Z,71.20
2018-05-26T01:44:01.618Z,71.20
2018-05-26T01:46:29.103Z,71.20
2018-05-26T01:48:57.347Z,71.50
2018-05-26T01:51:24.831Z,71.50
2018-05-26T01:53:53.053Z,71.40
2018-05-26T01:56:20.578Z,71.40
2018-05-26T01:58:48.050Z,71.40
2018-05-26T02:01:15.537Z,71.40
2018-05-26T02:03:42.988Z,71.70
2018-05-26T02:06:10.493Z,71.90
2018-05-26T02:08:38.706Z,72.70
2018-05-26T02:11:06.190Z,72.20
2018-05-26T02:13:33.663Z,72.20
2018-05-26T02:16:01.187Z,72.20
2018-05-26T02:18:28.664Z,72.00
2018-05-26T02:20:56.101Z,72.40
2018-05-26T02:23:23.565Z,72.90
2018-05-26T02:25:51.027Z,73.30
2018-05-26T02:28:18.506Z,73.60
2018-05-26T02:30:45.963Z,73.80
2018-05-26T02:33:14.230Z,73.90
2018-05-26T02:35:41.782Z,73.70
2018-05-26T02:38:10.757Z,74.10
2018-05-26T02:40:38.222Z,74.10
2018-05-26T02:43:05.718Z,74.10
2018-05-26T02:45:33.928Z,74.20
2018-05-26T02:48:01.388Z,74.20
2018-05-26T02:50:28.871Z,74.20
2018-05-26T02:52:56.323Z,74.30
2018-05-26T02:55:23.810Z,74.50
2018-05-26T02:57:52.029Z,74.70
2018-05-26T03:00:19.519Z,74.60
2018-05-26T03:02:47.088Z,74.60
2018-05-26T03:05:20.154Z,74.80
2018-05-26T03:07:53.383Z,75.00
2018-05-26T03:10:27.479Z,75.00
2018-05-26T03:13:00.648Z,74.90
2018-05-26T03:15:27.640Z,74.60
2018-05-26T03:18:10.728Z,75.10
2018-05-26T03:20:38.198Z,75.00
2018-05-26T03:23:06.414Z,75.70
2018-05-26T03:25:33.866Z,75.20
2018-05-26T03:28:01.380Z,75.40
2018-05-26T03:30:29.613Z,76.20
2018-05-26T03:32:57.086Z,76.20
2018-05-26T03:35:24.555Z,76.30
2018-05-26T03:37:52.011Z,76.20
2018-05-26T03:40:19.506Z,76.10
2018-05-26T03:42:46.983Z,76.20
2018-05-26T03:45:14.428Z,76.40
2018-05-26T03:47:41.895Z,76.50
2018-05-26T03:50:09.358Z,76.50
2018-05-26T03:52:36.825Z,76.50
2018-05-26T03:58:24.602Z,77.70
2018-05-26T04:00:52.055Z,76.80
2018-05-26T04:03:19.530Z,77.10
2018-05-26T04:05:47.006Z,77.40
2018-05-26T04:08:15.942Z,77.80
2018-05-26T04:10:43.430Z,78.60
2018-05-26T04:13:10.902Z,77.60
2018-05-26T04:15:39.139Z,77.90
2018-05-26T04:18:06.597Z,77.90
2018-05-26T04:20:34.075Z,78.10
2018-05-26T04:23:01.633Z,78.20
2018-05-26T04:25:29.103Z,78.30
2018-05-26T04:27:57.347Z,78.50
2018-05-26T04:30:24.810Z,78.30
2018-05-26T04:32:52.258Z,78.60
2018-05-26T04:35:19.868Z,78.50
2018-05-26T04:37:47.262Z,78.70
2018-05-26T04:40:14.705Z,78.60
2018-05-26T04:42:42.173Z,79.00
2018-05-26T04:45:09.620Z,78.90
2018-05-26T04:47:37.105Z,79.10
2018-05-26T04:50:04.579Z,79.20
2018-05-26T04:52:32.105Z,79.50
2018-05-26T04:54:59.554Z,79.30
2018-05-26T04:57:27.043Z,79.50
2018-05-26T04:59:54.585Z,79.10
2018-05-26T05:02:22.848Z,78.90
2018-05-26T05:04:50.300Z,78.90
2018-05-26T05:07:17.773Z,78.70
2018-05-26T05:09:45.217Z,78.70
2018-05-26T05:12:12.672Z,78.90
2018-05-26T05:14:40.201Z,78.70
2018-05-26T05:17:07.665Z,78.70
2018-05-26T05:19:35.162Z,78.80
2018-05-26T05:22:02.606Z,78.90
2018-05-26T05:24:30.098Z,78.90
2018-05-26T05:26:57.546Z,78.90
2018-05-26T05:29:25.804Z,79.20
2018-05-26T05:31:53.241Z,78.80
2018-05-26T05:34:20.744Z,78.60
2018-05-26T05:36:48.958Z,78.50
2018-05-26T05:39:18.753Z,78.40
2018-05-26T05:41:47.237Z,78.40
2018-05-26T05:44:14.728Z,78.20
2018-05-26T05:46:42.166Z,78.20
2018-05-26T05:49:09.631Z,78.00
2018-05-26T05:51:37.094Z,78.20
2018-05-26T05:54:04.573Z,78.00
2018-05-26T05:56:32.058Z,78.20
2018-05-26T05:58:59.489Z,77.90
2018-05-26T06:01:26.975Z,77.80
2018-05-26T06:03:55.192Z,77.40
2018-05-26T06:06:22.702Z,77.20
2018-05-26T06:08:50.935Z,77.10
2018-05-26T06:11:18.417Z,77.10
2018-05-26T06:13:46.689Z,77.90
2018-05-26T06:16:14.192Z,77.10
2018-05-26T06:18:41.643Z,77.30
2018-05-26T06:21:09.110Z,77.10
2018-05-26T06:23:36.565Z,76.90
2018-05-26T06:26:04.043Z,77.20
2018-05-26T06:28:31.522Z,77.00
2018-05-26T06:30:59.065Z,77.00
2018-05-26T06:33:26.538Z,76.70
2018-05-26T06:35:53.986Z,76.60
2018-05-26T06:38:21.571Z,76.40
2018-05-26T06:40:49.778Z,76.60
2018-05-26T06:43:17.256Z,76.50
2018-05-26T06:45:44.725Z,76.50
2018-05-26T06:48:12.299Z,77.40
2018-05-26T06:50:39.753Z,78.20
2018-05-26T06:53:07.219Z,77.70
2018-05-26T06:55:35.432Z,76.00
2018-05-26T06:58:02.914Z,76.00
2018-05-26T07:00:30.479Z,76.40
2018-05-26T07:02:57.958Z,76.50
2018-05-26T07:05:25.444Z,75.60
2018-05-26T07:07:52.917Z,76.20
2018-05-26T07:10:20.382Z,75.00
2018-05-26T07:12:47.867Z,74.80
2018-05-26T07:15:15.425Z,74.20
2018-05-26T07:17:42.932Z,74.20
2018-05-26T07:20:11.235Z,74.10
2018-05-26T07:22:38.683Z,74.10
2018-05-26T07:25:06.182Z,74.20
2018-05-26T07:27:33.645Z,74.20
2018-05-26T07:30:01.109Z,73.90
2018-05-26T07:32:29.350Z,73.50
2018-05-26T07:34:56.814Z,73.40
2018-05-26T07:37:24.306Z,73.70
2018-05-26T07:39:52.516Z,73.20
2018-05-26T07:42:19.990Z,73.20
2018-05-26T07:44:47.445Z,72.70
2018-05-26T07:47:14.933Z,72.50
2018-05-26T07:49:42.383Z,72.00
2018-05-26T07:52:09.858Z,72.00
2018-05-26T07:54:38.099Z,71.50
2018-05-26T07:57:05.703Z,71.30
2018-05-26T07:59:33.152Z,72.80
2018-05-26T08:02:01.386Z,71.60
2018-05-26T08:04:28.850Z,71.60
2018-05-26T08:06:56.323Z,71.90
2018-05-26T08:09:24.014Z,71.60
2018-05-26T08:11:51.497Z,71.30
2018-05-26T08:14:18.942Z,71.00
2018-05-26T08:16:46.418Z,70.30
2018-05-26T08:19:13.897Z,70.50
2018-05-26T08:21:41.355Z,71.50
2018-05-26T08:24:08.826Z,71.00
2018-05-26T08:26:36.272Z,70.40
2018-05-26T08:29:03.738Z,70.30
2018-05-26T08:31:31.191Z,70.00
2018-05-26T08:33:58.650Z,70.30
2018-05-26T08:36:26.112Z,69.90
2018-05-26T08:38:53.590Z,69.10
2018-05-26T08:41:21.049Z,69.40
2018-05-26T08:43:48.549Z,68.60
2018-05-26T08:46:16.012Z,69.30
2018-05-26T08:48:43.491Z,69.30
2018-05-26T08:51:11.736Z,68.90
2018-05-26T08:53:40.093Z,68.90
2018-05-26T08:56:07.539Z,68.00
2018-05-26T08:58:35.045Z,67.40
2018-05-26T09:01:02.539Z,67.50
2018-05-26T09:03:29.984Z,67.10
2018-05-26T09:05:58.238Z,65.80
2018-05-26T09:08:25.698Z,65.80
2018-05-26T09:10:53.968Z,68.10
2018-05-26T09:13:21.432Z,67.40
2018-05-26T09:15:48.925Z,67.20
2018-05-26T09:18:16.383Z,66.00
2018-05-26T09:20:43.856Z,66.10
2018-05-26T09:23:11.300Z,64.50
2018-05-26T09:25:38.858Z,64.00
2018-05-26T09:28:06.308Z,64.70
2018-05-26T09:30:33.873Z,63.80
2018-05-26T09:33:01.312Z,62.50
2018-05-26T09:35:28.766Z,62.90
2018-05-26T09:37:56.280Z,63.00
2018-05-26T09:40:23.729Z,61.50
2018-05-26T09:42:51.199Z,61.40
2018-05-26T09:45:18.658Z,59.90
2018-05-26T09:47:46.931Z,59.30
2018-05-26T09:50:14.495Z,59.30
2018-05-26T09:52:41.994Z,57.00
2018-05-26T09:55:09.499Z,58.10
2018-05-26T09:57:36.993Z,58.50
2018-05-26T10:00:04.448Z,58.30
2018-05-26T10:02:32.687Z,58.40
2018-05-26T10:05:00.158Z,58.40
2018-05-26T10:07:28.399Z,59.70
2018-05-26T10:09:55.878Z,59.20
2018-05-26T10:12:23.429Z,58.20
2018-05-26T10:14:50.880Z,57.10
2018-05-26T10:17:18.338Z,57.50
2018-05-26T10:19:45.830Z,56.80
2018-05-26T10:22:14.064Z,57.70
2018-05-26T10:24:41.544Z,57.70
2018-05-26T10:27:08.995Z,57.40
2018-05-26T10:29:36.556Z,56.20
2018-05-26T10:32:04.020Z,55.60
2018-05-26T10:34:32.296Z,54.90
2018-05-26T10:37:00.580Z,55.80
2018-05-26T10:39:28.940Z,55.90
2018-05-26T10:41:56.479Z,55.90
2018-05-26T10:44:23.941Z,55.00
2018-05-26T10:46:51.425Z,54.40
2018-05-26T10:49:19.699Z,54.70
2018-05-26T10:51:47.942Z,54.00
2018-05-26T10:54:15.399Z,53.90
2018-05-26T10:56:42.880Z,53.60
2018-05-26T10:59:10.360Z,53.70
2018-05-26T11:01:38.722Z,53.40
2018-05-26T11:04:06.983Z,54.50
2018-05-26T11:06:44.479Z,54.40
2018-05-26T11:09:11.951Z,54.10
2018-05-26T11:11:40.243Z,53.00
2018-05-26T11:14:08.450Z,52.70
2018-05-26T11:16:35.940Z,52.70
2018-05-26T11:19:03.402Z,52.80
2018-05-26T11:21:30.902Z,52.30
2018-05-26T11:23:58.420Z,52.10
2018-05-26T11:26:25.871Z,51.10
2018-05-26T11:28:53.380Z,49.50
2018-05-26T11:31:20.839Z,49.80
2018-05-26T11:33:48.287Z,48.10
2018-05-26T11:36:15.759Z,48.90
2018-05-26T11:38:43.244Z,50.10
2018-05-26T11:41:10.701Z,50.30
2018-05-26T11:43:38.225Z,47.30
2018-05-26T11:46:06.473Z,46.80
2018-05-26T11:48:34.803Z,46.60
2018-05-26T11:51:02.268Z,46.60
2018-05-26T11:53:29.827Z,47.60
2018-05-26T11:55:57.276Z,46.70
2018-05-26T11:58:24.772Z,46.40
2018-05-26T12:00:52.230Z,46.90
2018-05-26T12:03:19.705Z,46.60
2018-05-26T12:05:47.199Z,46.00
2018-05-26T12:08:14.997Z,46.20
2018-05-26T12:10:43.279Z,46.40
2018-05-26T12:13:10.739Z,46.30
2018-05-26T12:15:38.212Z,46.30
2018-05-26T12:18:05.754Z,45.20
2018-05-26T12:20:33.225Z,43.90
2018-05-26T12:23:00.674Z,43.80
2018-05-26T12:25:28.228Z,43.30
2018-05-26T12:27:55.630Z,44.60
2018-05-26T12:30:23.122Z,44.00
2018-05-26T12:32:50.611Z,42.70
2018-05-26T12:35:18.103Z,42.80
2018-05-26T12:37:45.571Z,42.00
2018-05-26T12:40:13.084Z,42.70
2018-05-26T12:42:40.647Z,42.80
2018-05-26T12:45:08.128Z,42.50
2018-05-26T12:47:35.590Z,41.80
2018-05-26T12:50:03.098Z,42.10
2018-05-26T12:52:30.574Z,41.90
2018-05-26T12:54:58.063Z,41.30
2018-05-26T12:57:25.550Z,42.40
2018-05-26T12:59:53.807Z,41.60
2018-05-26T13:02:21.283Z,41.50
2018-05-26T13:04:49.528Z,41.10
2018-05-26T13:07:16.986Z,41.00
2018-05-26T13:09:44.474Z,39.70
2018-05-26T13:12:12.682Z,40.60
2018-05-26T13:14:40.187Z,40.50
2018-05-26T13:17:07.673Z,40.50
2018-05-26T13:19:35.885Z,39.60
2018-05-26T13:22:03.440Z,39.50
2018-05-26T13:24:30.921Z,39.70
2018-05-26T13:26:58.435Z,40.50
2018-05-26T13:29:25.899Z,40.40
2018-05-26T13:31:53.429Z,39.70
2018-05-26T13:34:21.759Z,40.50
2018-05-26T13:36:49.225Z,40.50
2018-05-26T13:39:16.702Z,40.50
2018-05-26T13:41:44.919Z,40.80
2018-05-26T13:44:12.439Z,40.70
2018-05-26T13:46:40.702Z,39.40
2018-05-26T13:49:09.795Z,39.90
2018-05-26T13:51:37.332Z,39.80
2018-05-26T13:54:04.797Z,39.70
2018-05-26T13:56:32.316Z,40.70
2018-05-26T13:58:59.872Z,40.70
2018-05-26T14:01:27.312Z,40.80
2018-05-26T14:03:54.786Z,40.10
2018-05-26T14:06:22.249Z,40.40
2018-05-26T14:08:49.713Z,40.60
2018-05-26T14:11:17.185Z,39.80
2018-05-26T14:13:44.670Z,39.80
2018-05-26T14:16:12.910Z,39.40
2018-05-26T14:18:40.390Z,39.30
2018-05-26T14:21:07.866Z,37.60
2018-05-26T14:23:36.127Z,39.10
2018-05-26T14:26:03.669Z,39.00
2018-05-26T14:28:31.227Z,38.20
2018-05-26T14:30:58.696Z,38.10
2018-05-26T14:33:26.271Z,38.60
2018-05-26T14:35:54.579Z,37.90
2018-05-26T14:38:22.035Z,37.90
2018-05-26T14:40:49.539Z,38.00
2018-05-26T14:43:17.044Z,38.40
2018-05-26T14:45:44.521Z,38.10
2018-05-26T14:48:12.842Z,38.20
2018-05-26T14:50:40.318Z,38.00
2018-05-26T14:53:08.566Z,37.50
2018-05-26T14:55:36.134Z,37.50
2018-05-26T14:58:04.375Z,37.20
2018-05-26T15:00:31.861Z,37.00
2018-05-26T15:02:59.324Z,37.40
2018-05-26T15:05:27.650Z,38.20
2018-05-26T15:07:55.213Z,37.30
2018-05-26T15:10:22.663Z,36.60
2018-05-26T15:12:50.181Z,37.00
2018-05-26T15:15:17.606Z,37.40
2018-05-26T15:17:45.097Z,37.50
2018-05-26T15:20:13.335Z,37.50
2018-05-26T15:22:40.817Z,37.50
2018-05-26T15:25:09.035Z,38.60
2018-05-26T15:27:36.535Z,37.80
2018-05-26T15:30:04.024Z,37.90
2018-05-26T15:32:31.498Z,38.80
2018-05-26T15:34:58.956Z,39.20
2018-05-26T15:37:26.443Z,39.40
2018-05-26T15:39:53.927Z,39.60
2018-05-26T15:42:22.201Z,39.70
2018-05-26T15:44:50.440Z,40.30
2018-05-26T15:47:17.921Z,40.30
2018-05-26T15:49:45.402Z,40.00
2018-05-26T15:52:13.655Z,39.40
2018-05-26T15:54:41.146Z,39.30
2018-05-26T15:57:08.706Z,40.10
2018-05-26T15:59:36.190Z,41.00
2018-05-26T16:02:03.703Z,41.00
2018-05-26T16:04:31.927Z,41.00
2018-05-26T16:06:59.418Z,41.00
2018-05-26T16:09:26.873Z,41.30
2018-05-26T16:11:54.455Z,41.80
2018-05-26T16:14:22.714Z,40.50
2018-05-26T16:16:50.169Z,40.50
2018-05-26T16:19:17.677Z,41.00
2018-05-26T16:21:45.130Z,41.20
2018-05-26T16:24:12.599Z,40.50
2018-05-26T16:26:40.082Z,40.20
2018-05-26T16:29:07.639Z,40.80
2018-05-26T16:31:35.152Z,41.10
2018-05-26T16:34:02.632Z,41.50
2018-05-26T16:36:30.150Z,41.10
2018-05-26T16:38:58.407Z,40.60
2018-05-26T16:41:26.661Z,41.00
2018-05-26T16:43:54.139Z,40.90
2018-05-26T16:46:21.628Z,41.30
2018-05-26T16:48:49.179Z,41.10
2018-05-26T16:51:16.663Z,41.00
2018-05-26T16:53:44.179Z,41.10
2018-05-26T16:56:12.423Z,41.60
2018-05-26T16:58:39.875Z,41.50
2018-05-26T17:01:07.369Z,41.80
2018-05-26T17:03:35.603Z,42.90
2018-05-26T17:06:03.904Z,44.10
2018-05-26T17:08:32.114Z,44.40
2018-05-26T17:10:59.595Z,44.20
2018-05-26T17:13:27.096Z,44.90
2018-05-26T17:15:55.330Z,45.70
2018-05-26T17:18:22.788Z,45.60
2018-05-26T17:20:50.270Z,46.20
2018-05-26T17:23:17.744Z,46.70
2018-05-26T17:25:46.000Z,47.30
2018-05-26T17:28:14.282Z,46.80
2018-05-26T17:30:42.575Z,47.30
2018-05-26T17:33:10.826Z,47.60
2018-05-26T17:35:38.317Z,47.60
2018-05-26T17:38:05.819Z,47.70
2018-05-26T17:40:33.303Z,47.60
2018-05-26T17:43:01.597Z,47.60
2018-05-26T17:45:29.088Z,48.10
2018-05-26T17:47:56.600Z,47.50
2018-05-26T17:50:24.874Z,49.00
2018-05-26T17:52:53.162Z,49.10
2018-05-26T17:55:20.709Z,49.10
2018-05-26T17:57:48.939Z,49.30
2018-05-26T18:00:16.522Z,49.20
2018-05-26T18:02:43.997Z,49.10
2018-05-26T18:05:12.226Z,48.90
2018-05-26T18:07:39.727Z,48.90
2018-05-26T18:10:07.952Z,49.50
2018-05-26T18:12:35.434Z,49.50
2018-05-26T18:15:02.920Z,49.20
2018-05-26T18:17:30.374Z,49.70
2018-05-26T18:19:57.846Z,49.90
2018-05-26T18:22:26.114Z,49.10
2018-05-26T18:24:54.374Z,48.80
2018-05-26T18:27:21.857Z,48.70
2018-05-26T18:29:49.370Z,50.00
2018-05-26T18:32:16.946Z,49.00
2018-05-26T18:34:45.159Z,49.60
2018-05-26T18:37:12.655Z,49.60
2018-05-26T18:39:40.102Z,49.40
2018-05-26T18:42:07.576Z,48.60
2018-05-26T18:44:35.047Z,49.20
2018-05-26T18:47:02.546Z,49.00
2018-05-26T18:49:30.018Z,49.00
2018-05-26T18:51:57.490Z,49.30
2018-05-26T18:54:24.966Z,49.50
2018-05-26T18:56:52.453Z,50.20
2018-05-26T18:59:20.750Z,50.50
2018-05-26T19:01:48.231Z,50.50
2018-05-26T19:04:15.698Z,51.00
2018-05-26T19:06:43.168Z,51.10
2018-05-26T19:09:10.636Z,51.20
2018-05-26T19:11:38.891Z,52.10
2018-05-26T19:14:06.332Z,52.00
2018-05-26T19:16:33.835Z,52.10
2018-05-26T19:19:02.092Z,53.80
2018-05-26T19:21:29.668Z,53.80
2018-05-26T19:23:57.907Z,54.20
2018-05-26T19:26:25.372Z,54.10
2018-05-26T19:28:52.828Z,54.60
2018-05-26T19:31:20.303Z,54.70
2018-05-26T19:33:48.519Z,54.70
2018-05-26T19:36:16.023Z,54.60
2018-05-26T19:38:43.499Z,54.60
2018-05-26T19:41:11.788Z,55.00
2018-05-26T19:43:40.032Z,55.10
2018-05-26T19:46:09.030Z,55.30
2018-05-26T19:48:37.280Z,54.90
2018-05-26T19:51:04.744Z,55.50
2018-05-26T19:53:32.246Z,55.20
2018-05-26T19:55:59.699Z,55.70
2018-05-26T19:58:27.190Z,55.70
2018-05-26T20:00:54.657Z,56.00
2018-05-26T20:03:22.145Z,55.60
2018-05-26T20:05:49.617Z,56.00
2018-05-26T20:08:17.859Z,55.90
2018-05-26T20:10:45.333Z,55.90
2018-05-26T20:13:13.580Z,55.40
2018-05-26T20:15:41.039Z,55.40
2018-05-26T20:18:08.539Z,55.20
2018-05-26T20:20:36.007Z,55.20
2018-05-26T20:23:03.475Z,55.50
2018-05-26T20:25:30.974Z,55.70
2018-05-26T20:27:58.443Z,56.00
2018-05-26T20:30:25.915Z,56.40
2018-05-26T20:32:54.193Z,56.10
2018-05-26T20:35:21.666Z,56.00
2018-05-26T20:37:49.221Z,56.20
2018-05-26T20:40:16.671Z,55.60
2018-05-26T20:42:44.132Z,56.30
2018-05-26T20:45:11.622Z,56.40
2018-05-26T20:47:39.061Z,56.30
2018-05-26T20:50:06.601Z,56.50
2018-05-26T20:52:34.810Z,56.60
2018-05-26T20:55:02.312Z,56.60
2018-05-26T20:57:29.936Z,56.60
2018-05-26T20:59:57.484Z,57.50
2018-05-26T21:02:25.651Z,56.90
2018-05-26T21:04:53.128Z,56.90
2018-05-26T21:07:20.623Z,57.20
2018-05-26T21:09:48.185Z,57.50
2018-05-26T21:12:16.416Z,58.00
2018-05-26T21:14:44.698Z,57.90
2018-05-26T21:17:12.299Z,58.10
2018-05-26T21:19:40.520Z,58.40
2018-05-26T21:22:07.997Z,59.00
2018-05-26T21:24:35.508Z,58.80
2018-05-26T21:27:02.968Z,59.00
2018-05-26T21:29:30.459Z,59.10
2018-05-26T21:31:57.906Z,59.30
2018-05-26T21:34:25.487Z,59.60
2018-05-26T21:36:52.953Z,59.60
2018-05-26T21:39:20.442Z,60.00
2018-05-26T21:41:47.916Z,60.00
2018-05-26T21:44:15.477Z,60.10
2018-05-26T21:46:42.976Z,60.50
2018-05-26T21:49:10.428Z,60.60
2018-05-26T21:51:37.937Z,61.00
2018-05-26T21:54:05.403Z,61.20
2018-05-26T21:56:32.861Z,61.60
2018-05-26T21:59:00.355Z,61.60
2018-05-26T22:01:27.837Z,61.70
2018-05-26T22:03:56.074Z,61.90
2018-05-26T22:06:23.531Z,61.90
2018-05-26T22:08:51.086Z,61.80
2018-05-26T22:11:18.548Z,61.80
2018-05-26T22:13:46.034Z,61.90
2018-05-26T22:16:14.268Z,62.10
2018-05-26T22:18:41.742Z,62.00
2018-05-26T22:21:09.231Z,63.00
2018-05-26T22:23:37.449Z,61.80
2018-05-26T22:26:05.034Z,61.80
2018-05-26T22:28:32.531Z,61.90
2018-05-26T22:31:00.078Z,62.10
2018-05-26T22:33:28.343Z,62.10
2018-05-26T22:35:56.617Z,62.10
2018-05-26T22:38:24.083Z,62.00
2018-05-26T22:40:51.593Z,62.40
2018-05-26T22:43:19.067Z,62.10
2018-05-26T22:45:46.545Z,61.90
2018-05-26T22:48:14.775Z,62.20
2018-05-26T22:50:42.250Z,62.10
2018-05-26T22:53:09.730Z,62.10
2018-05-26T22:55:37.993Z,63.40
2018-05-26T22:58:05.455Z,62.70
2018-05-26T23:00:33.744Z,62.70
2018-05-26T23:03:02.003Z,62.90
2018-05-26T23:05:30.232Z,62.90
2018-05-26T23:07:57.752Z,62.90
2018-05-26T23:10:25.973Z,63.10
2018-05-26T23:12:53.478Z,63.10
2018-05-26T23:15:21.731Z,63.20
2018-05-26T23:17:49.296Z,63.00
2018-05-26T23:20:16.757Z,63.30
2018-05-26T23:22:44.237Z,62.80
2018-05-26T23:25:11.727Z,62.70
2018-05-26T23:27:39.210Z,62.60
2018-05-26T23:30:06.678Z,62.90
2018-05-26T23:32:34.130Z,62.30
2018-05-26T23:35:01.613Z,62.50
2018-05-26T23:37:29.917Z,62.30
2018-05-26T23:39:57.378Z,62.30
2018-05-26T23:42:24.888Z,61.90
2018-05-26T23:44:52.386Z,62.70
2018-05-26T23:47:19.851Z,62.20
2018-05-26T23:49:47.343Z,62.60
2018-05-26T23:52:14.895Z,61.90
2018-05-26T23:54:42.402Z,62.00
2018-05-26T23:57:09.873Z,62.00
2018-05-26T23:59:37.346Z,62.20
